createdAt,value
2023-04-27T00:01:47.616Z,21.10
2023-04-27T00:06:52.379Z,21.10
2023-04-27T00:11:55.325Z,21.10
2023-04-27T00:16:58.261Z,21.10
2023-04-27T00:22:02.653Z,21.10
2023-04-27T00:27:05.791Z,21.00
2023-04-27T00:32:08.850Z,21.00
2023-04-27T00:37:13.345Z,21.00
2023-04-27T00:42:19.548Z,21.00
2023-04-27T00:47:22.679Z,20.90
2023-04-27T00:52:27.023Z,20.90
2023-04-27T00:57:30.017Z,20.90
2023-04-27T01:02:33.200Z,20.80
2023-04-27T01:07:40.020Z,20.80
2023-04-27T01:12:42.946Z,20.90
2023-04-27T01:17:47.417Z,20.70
2023-04-27T01:22:51.725Z,20.70
2023-04-27T01:27:56.005Z,20.60
2023-04-27T01:39:21.630Z,20.50
2023-04-27T01:44:26.064Z,20.50
2023-04-27T01:49:28.950Z,20.50
2023-04-27T01:54:32.864Z,20.50
2023-04-27T01:59:37.154Z,20.50
2023-04-27T02:04:40.104Z,20.50
2023-04-27T02:09:43.083Z,20.40
2023-04-27T02:14:47.299Z,20.40
2023-04-27T02:19:50.258Z,20.40
2023-04-27T02:24:53.121Z,20.40
2023-04-27T02:29:57.376Z,20.40
2023-04-27T02:35:00.886Z,20.40
2023-04-27T02:40:04.520Z,20.30
2023-04-27T02:45:09.930Z,20.40
2023-04-27T02:50:13.740Z,20.30
2023-04-27T02:55:17.253Z,20.30
2023-04-27T03:00:22.051Z,20.30
2023-04-27T03:05:28.356Z,20.30
2023-04-27T03:10:31.314Z,20.30
2023-04-27T03:15:36.261Z,20.30
2023-04-27T03:20:39.202Z,20.30
2023-04-27T03:25:42.111Z,20.30
2023-04-27T03:30:46.373Z,20.30
2023-04-27T03:35:56.612Z,20.30
2023-04-27T03:40:59.628Z,20.30
2023-04-27T03:46:03.904Z,20.20
2023-04-27T03:51:07.009Z,20.20
2023-04-27T03:56:10.473Z,20.20
2023-04-27T04:01:14.826Z,20.20
2023-04-27T04:06:17.743Z,20.20
2023-04-27T04:11:20.679Z,20.20
2023-04-27T04:16:25.010Z,20.20
2023-04-27T04:21:27.909Z,20.20
2023-04-27T04:26:30.819Z,20.10
2023-04-27T04:31:35.127Z,20.10
2023-04-27T04:36:38.103Z,20.10
2023-04-27T04:41:41.015Z,20.10
2023-04-27T04:46:45.327Z,20.10
2023-04-27T04:51:48.267Z,20.10
2023-04-27T04:56:51.162Z,20.00
2023-04-27T05:01:56.111Z,20.00
2023-04-27T05:07:00.147Z,20.00
2023-04-27T05:12:03.434Z,20.00
2023-04-27T05:17:07.959Z,20.10
2023-04-27T05:22:10.945Z,20.00
2023-04-27T05:27:14.544Z,20.00
2023-04-27T05:32:18.835Z,20.00
2023-04-27T05:37:21.750Z,20.10
2023-04-27T05:42:24.812Z,20.00
2023-04-27T05:47:29.356Z,20.10
2023-04-27T05:52:32.912Z,20.10
2023-04-27T05:57:35.889Z,20.10
2023-04-27T06:02:40.345Z,20.10
2023-04-27T06:07:43.884Z,20.00
2023-04-27T06:12:46.801Z,20.20
2023-04-27T06:17:51.108Z,20.10
2023-04-27T06:22:54.051Z,20.10
2023-04-27T06:27:57.500Z,20.10
2023-04-27T06:33:01.808Z,20.10
2023-04-27T06:38:07.436Z,20.00
2023-04-27T06:43:10.750Z,20.00
2023-04-27T06:48:15.114Z,20.10
2023-04-27T06:53:18.109Z,20.10
2023-04-27T06:58:20.995Z,20.10
2023-04-27T07:03:25.370Z,20.10
2023-04-27T07:08:28.439Z,20.10
2023-04-27T07:13:31.417Z,20.10
2023-04-27T07:18:36.822Z,20.10
2023-04-27T07:23:40.344Z,20.20
2023-04-27T07:28:43.321Z,20.20
2023-04-27T07:33:47.824Z,20.30
2023-04-27T07:38:50.871Z,20.30
2023-04-27T07:43:53.743Z,20.30
2023-04-27T07:48:59.312Z,20.40
2023-04-27T07:54:02.597Z,20.40
2023-04-27T07:59:05.560Z,20.40
2023-04-27T08:04:10.088Z,20.40
2023-04-27T08:09:13.729Z,20.40
2023-04-27T08:14:16.902Z,20.40
2023-04-27T08:19:21.273Z,20.40
2023-04-27T08:24:24.169Z,20.40
2023-04-27T08:29:28.789Z,20.50
2023-04-27T08:34:33.605Z,20.50
2023-04-27T08:39:36.476Z,20.50
2023-04-27T08:44:41.207Z,20.60
2023-04-27T08:49:45.482Z,20.60
2023-04-27T08:54:48.402Z,20.60
2023-04-27T09:00:00.716Z,20.60
2023-04-27T09:05:06.859Z,20.70
2023-04-27T09:10:10.692Z,20.70
2023-04-27T09:15:13.641Z,20.80
2023-04-27T09:20:18.943Z,20.80
2023-04-27T09:25:26.502Z,20.90
2023-04-27T09:30:30.985Z,20.90
2023-04-27T09:35:35.226Z,20.90
2023-04-27T09:40:40.213Z,20.90
2023-04-27T09:45:43.699Z,20.90
2023-04-27T09:50:49.584Z,20.90
2023-04-27T09:56:02.335Z,21.00
2023-04-27T10:01:12.299Z,20.90
2023-04-27T10:06:59.725Z,21.00
2023-04-27T10:12:16.009Z,21.00
2023-04-27T10:17:19.525Z,21.00
2023-04-27T10:22:23.934Z,21.10
2023-04-27T10:27:26.964Z,21.10
2023-04-27T10:32:30.626Z,21.00
2023-04-27T10:37:42.265Z,21.00
2023-04-27T10:42:46.242Z,21.00
2023-04-27T10:47:49.151Z,21.10
2023-04-27T10:52:53.502Z,21.10
2023-04-27T10:57:57.957Z,21.10
2023-04-27T11:03:14.506Z,21.10
2023-04-27T11:08:20.990Z,21.10
2023-04-27T11:13:26.229Z,21.10
2023-04-27T11:18:33.037Z,21.10
2023-04-27T11:23:38.515Z,21.10
2023-04-27T11:28:42.019Z,21.10
2023-04-27T11:33:49.786Z,21.10
2023-04-27T11:38:59.102Z,21.10
2023-04-27T11:44:07.523Z,21.10
2023-04-27T11:49:10.461Z,21.20
2023-04-27T11:54:14.900Z,21.10
2023-04-27T11:59:22.995Z,21.20
2023-04-27T12:04:26.563Z,21.20
2023-04-27T12:09:31.013Z,21.20
2023-04-27T12:14:33.914Z,21.20
2023-04-27T12:19:37.345Z,21.20
2023-04-27T12:24:41.600Z,21.20
2023-04-27T12:29:44.503Z,21.20
2023-04-27T12:34:47.660Z,21.20
2023-04-27T12:39:52.012Z,21.20
2023-04-27T12:44:54.966Z,21.20
2023-04-27T12:49:57.857Z,21.20
2023-04-27T12:55:02.184Z,21.20
2023-04-27T13:00:08.171Z,21.20
2023-04-27T13:05:11.879Z,21.20
2023-04-27T13:10:16.329Z,21.20
2023-04-27T13:15:19.397Z,21.20
2023-04-27T13:20:22.321Z,21.20
2023-04-27T13:25:27.272Z,21.10
2023-04-27T13:30:31.768Z,21.10
2023-04-27T13:35:34.671Z,21.10
2023-04-27T13:40:38.956Z,21.10
2023-04-27T13:45:42.647Z,21.10
2023-04-27T13:50:45.686Z,21.10
2023-04-27T13:55:49.973Z,21.10
2023-04-27T14:00:53.719Z,21.10
2023-04-27T14:05:56.948Z,21.10
2023-04-27T14:11:01.385Z,21.10
2023-04-27T14:16:04.415Z,21.10
2023-04-27T14:21:07.438Z,21.10
2023-04-27T14:26:11.715Z,21.10
2023-04-27T14:31:14.617Z,21.10
2023-04-27T14:36:18.204Z,21.10
2023-04-27T14:41:22.467Z,21.10
2023-04-27T14:46:25.480Z,21.10
2023-04-27T14:51:28.845Z,21.10
2023-04-27T14:56:33.706Z,21.10
2023-04-27T15:01:37.499Z,21.00
2023-04-27T15:06:40.460Z,21.10
2023-04-27T15:11:44.856Z,21.00
2023-04-27T15:16:47.774Z,21.00
2023-04-27T15:21:50.738Z,21.00
2023-04-27T15:26:55.076Z,21.10
2023-04-27T15:31:58.042Z,21.00
2023-04-27T15:37:00.991Z,21.00
2023-04-27T15:42:06.505Z,21.00
2023-04-27T15:47:09.487Z,21.00
2023-04-27T15:52:12.415Z,21.00
2023-04-27T15:57:18.249Z,21.00
2023-04-27T16:02:21.511Z,21.00
2023-04-27T16:07:24.558Z,21.00
2023-04-27T16:12:29.532Z,21.00
2023-04-27T16:17:35.819Z,21.00
2023-04-27T16:22:39.399Z,21.00
2023-04-27T16:27:43.640Z,21.00
2023-04-27T16:32:46.616Z,20.90
2023-04-27T16:37:50.573Z,20.90
2023-04-27T16:42:54.829Z,20.90
2023-04-27T16:47:59.740Z,20.90
2023-04-27T16:53:07.003Z,20.90
2023-04-27T16:58:11.319Z,20.90
2023-04-27T17:03:14.639Z,20.90
2023-04-27T17:08:17.615Z,20.90
2023-04-27T17:13:21.873Z,20.80
2023-04-27T17:18:24.760Z,20.80
2023-04-27T17:23:27.698Z,20.80
2023-04-27T17:28:32.256Z,20.80
2023-04-27T17:33:35.197Z,20.70
2023-04-27T17:38:38.249Z,20.70
2023-04-27T17:43:42.554Z,20.70
2023-04-27T17:48:45.514Z,20.70
2023-04-27T17:53:48.416Z,20.60
2023-04-27T17:58:52.658Z,20.60
2023-04-27T18:03:55.767Z,20.60
2023-04-27T18:08:58.713Z,20.60
2023-04-27T18:14:03.708Z,20.60
2023-04-27T18:19:06.594Z,20.50
2023-04-27T18:24:10.658Z,20.50
2023-04-27T18:29:15.228Z,20.50
2023-04-27T18:34:18.341Z,20.40
2023-04-27T18:39:22.102Z,20.50
2023-04-27T18:44:26.375Z,20.40
2023-04-27T18:49:29.259Z,20.40
2023-04-27T18:54:32.133Z,20.40
2023-04-27T18:59:38.664Z,20.40
2023-04-27T19:04:45.473Z,20.40
2023-04-27T19:09:56.006Z,20.40
2023-04-27T19:15:00.280Z,20.30
2023-04-27T19:20:03.863Z,20.30
2023-04-27T19:25:07.855Z,20.30
2023-04-27T19:30:12.808Z,20.30
2023-04-27T19:35:15.953Z,20.30
2023-04-27T19:40:19.153Z,20.30
2023-04-27T19:45:24.706Z,20.30
2023-04-27T19:50:27.594Z,20.30
2023-04-27T19:55:30.883Z,20.30
2023-04-27T20:00:35.720Z,20.20
2023-04-27T20:05:38.901Z,20.20
2023-04-27T20:10:42.047Z,20.20
2023-04-27T20:15:46.630Z,20.20
2023-04-27T20:20:51.293Z,20.20
2023-04-27T20:25:54.199Z,20.10
2023-04-27T20:30:58.476Z,20.10
2023-04-27T20:36:10.346Z,20.10
2023-04-27T20:41:19.757Z,20.10
2023-04-27T20:46:24.013Z,20.10
2023-04-27T20:51:27.835Z,20.10
2023-04-27T20:56:31.549Z,20.10
2023-04-27T21:01:35.904Z,20.10
2023-04-27T21:06:38.867Z,20.00
2023-04-27T21:11:41.794Z,20.10
2023-04-27T21:16:46.136Z,20.10
2023-04-27T21:21:49.104Z,20.00
2023-04-27T21:26:52.086Z,20.00
2023-04-27T21:31:56.427Z,20.10
2023-04-27T21:36:59.650Z,20.00
2023-04-27T21:42:02.664Z,20.00
2023-04-27T21:47:06.954Z,20.00
2023-04-27T21:52:10.518Z,20.00
2023-04-27T21:57:13.445Z,20.00
2023-04-27T22:02:17.719Z,20.00
2023-04-27T22:07:20.631Z,20.00
2023-04-27T22:12:23.497Z,20.00
2023-04-27T22:17:27.850Z,20.00
2023-04-27T22:22:31.205Z,19.90
2023-04-27T22:27:42.159Z,19.90
2023-04-27T22:32:48.697Z,19.90
2023-04-27T22:37:51.602Z,19.90
2023-04-27T22:42:55.261Z,19.90
2023-04-27T22:47:59.781Z,19.90
2023-04-27T22:53:03.721Z,19.90
2023-04-27T22:58:07.150Z,19.90
2023-04-27T23:03:12.164Z,19.90
2023-04-27T23:08:16.893Z,19.80
2023-04-27T23:13:20.113Z,19.90
2023-04-27T23:18:24.359Z,19.90
2023-04-27T23:23:27.226Z,19.80
2023-04-27T23:28:30.214Z,19.80
2023-04-27T23:33:34.596Z,19.80
2023-04-27T23:38:37.512Z,19.80
2023-04-27T23:43:40.461Z,19.80
2023-04-27T23:48:44.776Z,19.80
2023-04-27T23:53:47.636Z,19.80
2023-04-27T23:58:50.551Z,19.80
